<?xml version="1.0" encoding="UTF-8" standalone="no" ?>
<gpx xmlns="http://www.topografix.com/GPX/1/1" xmlns:xsi="http://www.w3.org/2001/XMLSchema-instance" xsi:schemaLocation="http://www.topografix.com/GPX/1/1 http://www.topografix.com/GPX/1/1/gpx.xsd" version="1.1" creator="VisuGPX - https://www.visugpx.com">
  <metadata>
    <name>étape 6-1_Col de Saint Louis</name>
  </metadata>
  <trk>
    <name><![CDATA[étape_6_Axat_Argeles_Variante 2_151 kms_1574 D+]]></name>
    <extensions>
      <line xmlns="http://www.topografix.com/GPX/gpx_style/0/2">
        <color>0000FF</color>
        <width>4</width>
      </line>
    </extensions>
    <trkseg>
      <trkpt lat="42.81596" lon="2.37137">
        <ele>346.9</ele>
        <time>2021-08-30T21:34:54.318Z</time>
      </trkpt>
      <trkpt lat="42.81653" lon="2.3706">
        <ele>347.1</ele>
        <time>2021-08-30T21:35:07.665Z</time>
      </trkpt>
      <trkpt lat="42.81657" lon="2.37053">
        <ele>347.1</ele>
        <time>2021-08-30T21:35:08.723Z</time>
      </trkpt>
      <trkpt lat="42.8167" lon="2.37029">
        <ele>346.9</ele>
        <time>2021-08-30T21:35:11.718Z</time>
      </trkpt>
      <trkpt lat="42.81686" lon="2.36992">
        <ele>346.5</ele>
        <time>2021-08-30T21:35:15.833Z</time>
      </trkpt>
      <trkpt lat="42.81693" lon="2.36965">
        <ele>346.9</ele>
        <time>2021-08-30T21:35:19.969Z</time>
      </trkpt>
      <trkpt lat="42.81696" lon="2.36942">
        <ele>347.4</ele>
        <time>2021-08-30T21:35:23.770Z</time>
      </trkpt>
      <trkpt lat="42.81714" lon="2.36786">
        <ele>353.7</ele>
        <time>2021-08-30T21:35:57.666Z</time>
      </trkpt>
      <trkpt lat="42.81717" lon="2.36762">
        <ele>354.9</ele>
        <time>2021-08-30T21:36:03.386Z</time>
      </trkpt>
      <trkpt lat="42.81725" lon="2.36742">
        <ele>355.6</ele>
        <time>2021-08-30T21:36:07.793Z</time>
      </trkpt>
      <trkpt lat="42.81741" lon="2.36713">
        <ele>357</ele>
        <time>2021-08-30T21:36:15.489Z</time>
      </trkpt>
      <trkpt lat="42.81766" lon="2.36675">
        <ele>359.1</ele>
        <time>2021-08-30T21:36:26.572Z</time>
      </trkpt>
      <trkpt lat="42.81883" lon="2.36523">
        <ele>364.1</ele>
        <time>2021-08-30T21:37:03.229Z</time>
      </trkpt>
      <trkpt lat="42.81897" lon="2.36502">
        <ele>363.6</ele>
        <time>2021-08-30T21:37:05.603Z</time>
      </trkpt>
      <trkpt lat="42.81908" lon="2.36479">
        <ele>364.5</ele>
        <time>2021-08-30T21:37:11.134Z</time>
      </trkpt>
      <trkpt lat="42.81913" lon="2.36468">
        <ele>365</ele>
        <time>2021-08-30T21:37:13.880Z</time>
      </trkpt>
      <trkpt lat="42.81917" lon="2.36449">
        <ele>366.7</ele>
        <time>2021-08-30T21:37:21.247Z</time>
      </trkpt>
      <trkpt lat="42.81921" lon="2.36397">
        <ele>374.9</ele>
        <time>2021-08-30T21:37:45.291Z</time>
      </trkpt>
      <trkpt lat="42.81926" lon="2.36385">
        <ele>377</ele>
        <time>2021-08-30T21:37:51.637Z</time>
      </trkpt>
      <trkpt lat="42.81933" lon="2.36378">
        <ele>377.7</ele>
        <time>2021-08-30T21:37:54.724Z</time>
      </trkpt>
      <trkpt lat="42.81941" lon="2.36377">
        <ele>377.1</ele>
        <time>2021-08-30T21:37:55.401Z</time>
      </trkpt>
      <trkpt lat="42.81966" lon="2.36388">
        <ele>372.6</ele>
        <time>2021-08-30T21:37:57.614Z</time>
      </trkpt>
      <trkpt lat="42.81973" lon="2.36388">
        <ele>372</ele>
        <time>2021-08-30T21:37:58.204Z</time>
      </trkpt>
      <trkpt lat="42.81979" lon="2.36385">
        <ele>371.9</ele>
        <time>2021-08-30T21:37:59.008Z</time>
      </trkpt>
      <trkpt lat="42.81985" lon="2.36378">
        <ele>372.5</ele>
        <time>2021-08-30T21:38:01.713Z</time>
      </trkpt>
      <trkpt lat="42.8199" lon="2.36369">
        <ele>373.5</ele>
        <time>2021-08-30T21:38:06.100Z</time>
      </trkpt>
      <trkpt lat="42.82008" lon="2.36316">
        <ele>381.2</ele>
        <time>2021-08-30T21:38:32.958Z</time>
      </trkpt>
      <trkpt lat="42.82016" lon="2.363">
        <ele>383.9</ele>
        <time>2021-08-30T21:38:41.863Z</time>
      </trkpt>
      <trkpt lat="42.82024" lon="2.36288">
        <ele>385.5</ele>
        <time>2021-08-30T21:38:49.320Z</time>
      </trkpt>
      <trkpt lat="42.82054" lon="2.36259">
        <ele>386.7</ele>
        <time>2021-08-30T21:38:57.845Z</time>
      </trkpt>
      <trkpt lat="42.8207" lon="2.36224">
        <ele>391.9</ele>
        <time>2021-08-30T21:39:16.810Z</time>
      </trkpt>
      <trkpt lat="42.82079" lon="2.36211">
        <ele>393.2</ele>
        <time>2021-08-30T21:39:22.306Z</time>
      </trkpt>
      <trkpt lat="42.82131" lon="2.36146">
        <ele>397.2</ele>
        <time>2021-08-30T21:39:43.277Z</time>
      </trkpt>
      <trkpt lat="42.82167" lon="2.36106">
        <ele>400.4</ele>
        <time>2021-08-30T21:39:58.342Z</time>
      </trkpt>
      <trkpt lat="42.82182" lon="2.36084">
        <ele>404.2</ele>
        <time>2021-08-30T21:40:12.154Z</time>
      </trkpt>
      <trkpt lat="42.82207" lon="2.36045">
        <ele>404.3</ele>
        <time>2021-08-30T21:40:18.482Z</time>
      </trkpt>
      <trkpt lat="42.82243" lon="2.35991">
        <ele>407.2</ele>
        <time>2021-08-30T21:40:34.122Z</time>
      </trkpt>
      <trkpt lat="42.82265" lon="2.3595">
        <ele>408.5</ele>
        <time>2021-08-30T21:40:43.023Z</time>
      </trkpt>
      <trkpt lat="42.82279" lon="2.35923">
        <ele>411.2</ele>
        <time>2021-08-30T21:40:54.546Z</time>
      </trkpt>
      <trkpt lat="42.82289" lon="2.35908">
        <ele>413</ele>
        <time>2021-08-30T21:41:02.454Z</time>
      </trkpt>
      <trkpt lat="42.82302" lon="2.35894">
        <ele>414.8</ele>
        <time>2021-08-30T21:41:10.101Z</time>
      </trkpt>
      <trkpt lat="42.82312" lon="2.35879">
        <ele>416</ele>
        <time>2021-08-30T21:41:15.391Z</time>
      </trkpt>
      <trkpt lat="42.82381" lon="2.35763">
        <ele>421.7</ele>
        <time>2021-08-30T21:41:46.945Z</time>
      </trkpt>
      <trkpt lat="42.82388" lon="2.35755">
        <ele>422.7</ele>
        <time>2021-08-30T21:41:51.198Z</time>
      </trkpt>
      <trkpt lat="42.82408" lon="2.35739">
        <ele>425.6</ele>
        <time>2021-08-30T21:42:04.167Z</time>
      </trkpt>
      <trkpt lat="42.82445" lon="2.35724">
        <ele>426.4</ele>
        <time>2021-08-30T21:42:11.911Z</time>
      </trkpt>
      <trkpt lat="42.82463" lon="2.35713">
        <ele>427.2</ele>
        <time>2021-08-30T21:42:17.012Z</time>
      </trkpt>
      <trkpt lat="42.82484" lon="2.35694">
        <ele>430.3</ele>
        <time>2021-08-30T21:42:30.743Z</time>
      </trkpt>
      <trkpt lat="42.82488" lon="2.35686">
        <ele>431.6</ele>
        <time>2021-08-30T21:42:35.195Z</time>
      </trkpt>
      <trkpt lat="42.82491" lon="2.35676">
        <ele>433</ele>
        <time>2021-08-30T21:42:40.163Z</time>
      </trkpt>
      <trkpt lat="42.82491" lon="2.35666">
        <ele>433.9</ele>
        <time>2021-08-30T21:42:44.144Z</time>
      </trkpt>
      <trkpt lat="42.82482" lon="2.35629">
        <ele>434.6</ele>
        <time>2021-08-30T21:42:50.134Z</time>
      </trkpt>
      <trkpt lat="42.82481" lon="2.35615">
        <ele>435.4</ele>
        <time>2021-08-30T21:42:53.712Z</time>
      </trkpt>
      <trkpt lat="42.82481" lon="2.35605">
        <ele>436.2</ele>
        <time>2021-08-30T21:42:57.113Z</time>
      </trkpt>
      <trkpt lat="42.82485" lon="2.35591">
        <ele>438.5</ele>
        <time>2021-08-30T21:43:04.022Z</time>
      </trkpt>
      <trkpt lat="42.8249" lon="2.35577">
        <ele>440</ele>
        <time>2021-08-30T21:43:10.971Z</time>
      </trkpt>
      <trkpt lat="42.82496" lon="2.35566">
        <ele>440.4</ele>
        <time>2021-08-30T21:43:13.543Z</time>
      </trkpt>
      <trkpt lat="42.82519" lon="2.35531">
        <ele>440.2</ele>
        <time>2021-08-30T21:43:18.687Z</time>
      </trkpt>
      <trkpt lat="42.82536" lon="2.35507">
        <ele>443.3</ele>
        <time>2021-08-30T21:43:32.665Z</time>
      </trkpt>
      <trkpt lat="42.8257" lon="2.35468">
        <ele>451.4</ele>
        <time>2021-08-30T21:44:00.520Z</time>
      </trkpt>
      <trkpt lat="42.82581" lon="2.35452">
        <ele>453.8</ele>
        <time>2021-08-30T21:44:10.604Z</time>
      </trkpt>
      <trkpt lat="42.82594" lon="2.3543">
        <ele>456.3</ele>
        <time>2021-08-30T21:44:21.569Z</time>
      </trkpt>
      <trkpt lat="42.82633" lon="2.35341">
        <ele>472.7</ele>
        <time>2021-08-30T21:45:09.240Z</time>
      </trkpt>
      <trkpt lat="42.82642" lon="2.35314">
        <ele>477.8</ele>
        <time>2021-08-30T21:45:22.877Z</time>
      </trkpt>
      <trkpt lat="42.82661" lon="2.35218">
        <ele>484.2</ele>
        <time>2021-08-30T21:45:50.417Z</time>
      </trkpt>
      <trkpt lat="42.82667" lon="2.35197">
        <ele>484.3</ele>
        <time>2021-08-30T21:45:53.261Z</time>
      </trkpt>
      <trkpt lat="42.82692" lon="2.35139">
        <ele>493.2</ele>
        <time>2021-08-30T21:46:24.194Z</time>
      </trkpt>
      <trkpt lat="42.82706" lon="2.35097">
        <ele>495.1</ele>
        <time>2021-08-30T21:46:34.214Z</time>
      </trkpt>
      <trkpt lat="42.82714" lon="2.35078">
        <ele>496.5</ele>
        <time>2021-08-30T21:46:40.249Z</time>
      </trkpt>
      <trkpt lat="42.8282" lon="2.349">
        <ele>517.6</ele>
        <time>2021-08-30T21:48:14.799Z</time>
      </trkpt>
      <trkpt lat="42.82843" lon="2.3487">
        <ele>520.7</ele>
        <time>2021-08-30T21:48:27.919Z</time>
      </trkpt>
      <trkpt lat="42.8286" lon="2.34853">
        <ele>523</ele>
        <time>2021-08-30T21:48:37.697Z</time>
      </trkpt>
      <trkpt lat="42.82873" lon="2.34845">
        <ele>525.7</ele>
        <time>2021-08-30T21:48:46.639Z</time>
      </trkpt>
      <trkpt lat="42.82944" lon="2.34819">
        <ele>544.1</ele>
        <time>2021-08-30T21:49:32.729Z</time>
      </trkpt>
      <trkpt lat="42.82957" lon="2.34815">
        <ele>548.1</ele>
        <time>2021-08-30T21:49:41.084Z</time>
      </trkpt>
      <trkpt lat="42.8296" lon="2.34814">
        <ele>549.1</ele>
        <time>2021-08-30T21:49:43.020Z</time>
      </trkpt>
      <trkpt lat="42.82965" lon="2.3481">
        <ele>550.6</ele>
        <time>2021-08-30T21:49:46.654Z</time>
      </trkpt>
      <trkpt lat="42.82969" lon="2.34805">
        <ele>551.8</ele>
        <time>2021-08-30T21:49:50.056Z</time>
      </trkpt>
      <trkpt lat="42.82977" lon="2.34757">
        <ele>553.7</ele>
        <time>2021-08-30T21:50:00.496Z</time>
      </trkpt>
      <trkpt lat="42.82977" lon="2.34748">
        <ele>553.8</ele>
        <time>2021-08-30T21:50:01.742Z</time>
      </trkpt>
      <trkpt lat="42.82975" lon="2.34733">
        <ele>554.6</ele>
        <time>2021-08-30T21:50:05.442Z</time>
      </trkpt>
      <trkpt lat="42.82967" lon="2.34701">
        <ele>553.5</ele>
        <time>2021-08-30T21:50:07.745Z</time>
      </trkpt>
      <trkpt lat="42.82963" lon="2.3468">
        <ele>553</ele>
        <time>2021-08-30T21:50:09.421Z</time>
      </trkpt>
      <trkpt lat="42.82957" lon="2.34582">
        <ele>564.2</ele>
        <time>2021-08-30T21:50:54.636Z</time>
      </trkpt>
      <trkpt lat="42.82952" lon="2.34539">
        <ele>565.4</ele>
        <time>2021-08-30T21:51:02.550Z</time>
      </trkpt>
      <trkpt lat="42.82952" lon="2.34506">
        <ele>568.8</ele>
        <time>2021-08-30T21:51:17.723Z</time>
      </trkpt>
      <trkpt lat="42.82942" lon="2.34442">
        <ele>564.1</ele>
        <time>2021-08-30T21:51:21.766Z</time>
      </trkpt>
      <trkpt lat="42.8294" lon="2.34425">
        <ele>563.1</ele>
        <time>2021-08-30T21:51:22.830Z</time>
      </trkpt>
      <trkpt lat="42.82942" lon="2.34415">
        <ele>564.8</ele>
        <time>2021-08-30T21:51:27.595Z</time>
      </trkpt>
      <trkpt lat="42.82954" lon="2.34397">
        <ele>573.4</ele>
        <time>2021-08-30T21:51:38.780Z</time>
      </trkpt>
      <trkpt lat="42.82962" lon="2.34367">
        <ele>578.9</ele>
        <time>2021-08-30T21:51:53.457Z</time>
      </trkpt>
      <trkpt lat="42.82964" lon="2.34355">
        <ele>580.3</ele>
        <time>2021-08-30T21:51:59.115Z</time>
      </trkpt>
      <trkpt lat="42.82964" lon="2.34281">
        <ele>584.6</ele>
        <time>2021-08-30T21:52:18.193Z</time>
      </trkpt>
      <trkpt lat="42.82956" lon="2.34239">
        <ele>582.3</ele>
        <time>2021-08-30T21:52:20.874Z</time>
      </trkpt>
      <trkpt lat="42.82958" lon="2.34195">
        <ele>588.4</ele>
        <time>2021-08-30T21:52:41.143Z</time>
      </trkpt>
      <trkpt lat="42.8297" lon="2.34147">
        <ele>600.3</ele>
        <time>2021-08-30T21:53:04.460Z</time>
      </trkpt>
      <trkpt lat="42.82972" lon="2.34122">
        <ele>602.3</ele>
        <time>2021-08-30T21:53:12.954Z</time>
      </trkpt>
      <trkpt lat="42.82969" lon="2.34025">
        <ele>603.7</ele>
        <time>2021-08-30T21:53:27.069Z</time>
      </trkpt>
      <trkpt lat="42.82965" lon="2.33981">
        <ele>604.5</ele>
        <time>2021-08-30T21:53:33.892Z</time>
      </trkpt>
      <trkpt lat="42.82957" lon="2.33925">
        <ele>607.2</ele>
        <time>2021-08-30T21:53:47.035Z</time>
      </trkpt>
      <trkpt lat="42.82952" lon="2.33905">
        <ele>609.3</ele>
        <time>2021-08-30T21:53:56.750Z</time>
      </trkpt>
      <trkpt lat="42.82946" lon="2.33888">
        <ele>611.5</ele>
        <time>2021-08-30T21:54:05.424Z</time>
      </trkpt>
      <trkpt lat="42.82938" lon="2.33874">
        <ele>612.6</ele>
        <time>2021-08-30T21:54:10.204Z</time>
      </trkpt>
      <trkpt lat="42.8293" lon="2.33864">
        <ele>612.9</ele>
        <time>2021-08-30T21:54:12.567Z</time>
      </trkpt>
      <trkpt lat="42.82925" lon="2.3386">
        <ele>612.5</ele>
        <time>2021-08-30T21:54:13.055Z</time>
      </trkpt>
      <trkpt lat="42.82918" lon="2.3386">
        <ele>610.6</ele>
        <time>2021-08-30T21:54:13.645Z</time>
      </trkpt>
      <trkpt lat="42.82903" lon="2.33876">
        <ele>608.5</ele>
        <time>2021-08-30T21:54:15.249Z</time>
      </trkpt>
      <trkpt lat="42.82891" lon="2.3388">
        <ele>609.7</ele>
        <time>2021-08-30T21:54:20.329Z</time>
      </trkpt>
      <trkpt lat="42.82882" lon="2.3388">
        <ele>611.3</ele>
        <time>2021-08-30T21:54:25.971Z</time>
      </trkpt>
      <trkpt lat="42.82871" lon="2.33874">
        <ele>614</ele>
        <time>2021-08-30T21:54:33.399Z</time>
      </trkpt>
      <trkpt lat="42.82858" lon="2.33864">
        <ele>617.2</ele>
        <time>2021-08-30T21:54:42.757Z</time>
      </trkpt>
      <trkpt lat="42.82848" lon="2.33852">
        <ele>619.6</ele>
        <time>2021-08-30T21:54:51.108Z</time>
      </trkpt>
      <trkpt lat="42.82842" lon="2.33837">
        <ele>621.2</ele>
        <time>2021-08-30T21:54:58.362Z</time>
      </trkpt>
      <trkpt lat="42.82842" lon="2.33825">
        <ele>623.1</ele>
        <time>2021-08-30T21:55:03.879Z</time>
      </trkpt>
      <trkpt lat="42.82846" lon="2.33808">
        <ele>626.3</ele>
        <time>2021-08-30T21:55:12.088Z</time>
      </trkpt>
      <trkpt lat="42.82853" lon="2.33798">
        <ele>627.7</ele>
        <time>2021-08-30T21:55:18.444Z</time>
      </trkpt>
      <trkpt lat="42.8286" lon="2.33792">
        <ele>628.4</ele>
        <time>2021-08-30T21:55:21.484Z</time>
      </trkpt>
      <trkpt lat="42.8287" lon="2.33788">
        <ele>628.3</ele>
        <time>2021-08-30T21:55:22.902Z</time>
      </trkpt>
      <trkpt lat="42.82878" lon="2.3379">
        <ele>627.3</ele>
        <time>2021-08-30T21:55:23.587Z</time>
      </trkpt>
      <trkpt lat="42.82883" lon="2.33794">
        <ele>626.2</ele>
        <time>2021-08-30T21:55:24.075Z</time>
      </trkpt>
      <trkpt lat="42.82887" lon="2.33799">
        <ele>625</ele>
        <time>2021-08-30T21:55:24.533Z</time>
      </trkpt>
      <trkpt lat="42.8289" lon="2.3381">
        <ele>622.8</ele>
        <time>2021-08-30T21:55:25.258Z</time>
      </trkpt>
      <trkpt lat="42.8289" lon="2.3382">
        <ele>621</ele>
        <time>2021-08-30T21:55:25.876Z</time>
      </trkpt>
      <trkpt lat="42.82887" lon="2.33828">
        <ele>619.7</ele>
        <time>2021-08-30T21:55:26.431Z</time>
      </trkpt>
      <trkpt lat="42.82877" lon="2.33851">
        <ele>616.6</ele>
        <time>2021-08-30T21:55:28.083Z</time>
      </trkpt>
      <trkpt lat="42.82848" lon="2.33908">
        <ele>614.9</ele>
        <time>2021-08-30T21:55:33.332Z</time>
      </trkpt>
      <trkpt lat="42.82842" lon="2.33916">
        <ele>615.8</ele>
        <time>2021-08-30T21:55:37.149Z</time>
      </trkpt>
      <trkpt lat="42.82836" lon="2.3392">
        <ele>617</ele>
        <time>2021-08-30T21:55:41.336Z</time>
      </trkpt>
      <trkpt lat="42.82827" lon="2.33919">
        <ele>621.3</ele>
        <time>2021-08-30T21:55:46.997Z</time>
      </trkpt>
      <trkpt lat="42.82818" lon="2.33914">
        <ele>626.4</ele>
        <time>2021-08-30T21:55:53.090Z</time>
      </trkpt>
      <trkpt lat="42.82812" lon="2.33902">
        <ele>630.1</ele>
        <time>2021-08-30T21:55:59.768Z</time>
      </trkpt>
      <trkpt lat="42.82809" lon="2.33888">
        <ele>632.3</ele>
        <time>2021-08-30T21:56:06.474Z</time>
      </trkpt>
      <trkpt lat="42.82808" lon="2.33868">
        <ele>633.7</ele>
        <time>2021-08-30T21:56:12.412Z</time>
      </trkpt>
      <trkpt lat="42.8281" lon="2.33847">
        <ele>633.5</ele>
        <time>2021-08-30T21:56:14.436Z</time>
      </trkpt>
      <trkpt lat="42.82814" lon="2.33828">
        <ele>633</ele>
        <time>2021-08-30T21:56:15.916Z</time>
      </trkpt>
      <trkpt lat="42.82822" lon="2.33809">
        <ele>632.6</ele>
        <time>2021-08-30T21:56:17.730Z</time>
      </trkpt>
      <trkpt lat="42.82832" lon="2.3379">
        <ele>631.5</ele>
        <time>2021-08-30T21:56:19.080Z</time>
      </trkpt>
      <trkpt lat="42.82856" lon="2.3376">
        <ele>634.9</ele>
        <time>2021-08-30T21:56:33.462Z</time>
      </trkpt>
      <trkpt lat="42.82861" lon="2.3375">
        <ele>636.3</ele>
        <time>2021-08-30T21:56:39.027Z</time>
      </trkpt>
      <trkpt lat="42.82865" lon="2.33733">
        <ele>637.9</ele>
        <time>2021-08-30T21:56:46.089Z</time>
      </trkpt>
      <trkpt lat="42.82867" lon="2.33706">
        <ele>640.5</ele>
        <time>2021-08-30T21:56:58.082Z</time>
      </trkpt>
      <trkpt lat="42.82871" lon="2.33692">
        <ele>641.1</ele>
        <time>2021-08-30T21:57:01.307Z</time>
      </trkpt>
      <trkpt lat="42.82892" lon="2.33651">
        <ele>641.1</ele>
        <time>2021-08-30T21:57:07.269Z</time>
      </trkpt>
      <trkpt lat="42.82899" lon="2.33641">
        <ele>641.1</ele>
        <time>2021-08-30T21:57:08.917Z</time>
      </trkpt>
      <trkpt lat="42.8291" lon="2.33634">
        <ele>639.3</ele>
        <time>2021-08-30T21:57:09.939Z</time>
      </trkpt>
      <trkpt lat="42.82922" lon="2.3363">
        <ele>638.5</ele>
        <time>2021-08-30T21:57:10.907Z</time>
      </trkpt>
      <trkpt lat="42.82933" lon="2.3363">
        <ele>639.4</ele>
        <time>2021-08-30T21:57:14.856Z</time>
      </trkpt>
      <trkpt lat="42.8296" lon="2.33634">
        <ele>640.9</ele>
        <time>2021-08-30T21:57:22.849Z</time>
      </trkpt>
      <trkpt lat="42.8301" lon="2.33653">
        <ele>642.1</ele>
        <time>2021-08-30T21:57:33.552Z</time>
      </trkpt>
      <trkpt lat="42.83019" lon="2.33653">
        <ele>643.4</ele>
        <time>2021-08-30T21:57:39.195Z</time>
      </trkpt>
      <trkpt lat="42.83028" lon="2.3365">
        <ele>645.2</ele>
        <time>2021-08-30T21:57:45.003Z</time>
      </trkpt>
      <trkpt lat="42.83038" lon="2.33641">
        <ele>647.5</ele>
        <time>2021-08-30T21:57:52.515Z</time>
      </trkpt>
      <trkpt lat="42.83045" lon="2.33638">
        <ele>648.6</ele>
        <time>2021-08-30T21:57:57.115Z</time>
      </trkpt>
      <trkpt lat="42.83053" lon="2.33639">
        <ele>649.5</ele>
        <time>2021-08-30T21:58:00.962Z</time>
      </trkpt>
      <trkpt lat="42.8306" lon="2.33645">
        <ele>650</ele>
        <time>2021-08-30T21:58:03.485Z</time>
      </trkpt>
      <trkpt lat="42.83065" lon="2.33654">
        <ele>650.2</ele>
        <time>2021-08-30T21:58:05.213Z</time>
      </trkpt>
      <trkpt lat="42.83067" lon="2.33665">
        <ele>650.1</ele>
        <time>2021-08-30T21:58:06.308Z</time>
      </trkpt>
      <trkpt lat="42.83065" lon="2.33676">
        <ele>650.4</ele>
        <time>2021-08-30T21:58:08.326Z</time>
      </trkpt>
      <trkpt lat="42.8306" lon="2.33686">
        <ele>650.2</ele>
        <time>2021-08-30T21:58:09.355Z</time>
      </trkpt>
      <trkpt lat="42.83032" lon="2.33716">
        <ele>647.3</ele>
        <time>2021-08-30T21:58:12.355Z</time>
      </trkpt>
      <trkpt lat="42.83025" lon="2.33728">
        <ele>646.9</ele>
        <time>2021-08-30T21:58:13.491Z</time>
      </trkpt>
      <trkpt lat="42.83024" lon="2.33738">
        <ele>647.5</ele>
        <time>2021-08-30T21:58:16.132Z</time>
      </trkpt>
      <trkpt lat="42.83025" lon="2.3375">
        <ele>648.5</ele>
        <time>2021-08-30T21:58:20.414Z</time>
      </trkpt>
      <trkpt lat="42.83029" lon="2.3376">
        <ele>649.5</ele>
        <time>2021-08-30T21:58:24.784Z</time>
      </trkpt>
      <trkpt lat="42.83035" lon="2.33767">
        <ele>651.1</ele>
        <time>2021-08-30T21:58:29.735Z</time>
      </trkpt>
      <trkpt lat="42.83043" lon="2.33769">
        <ele>653.2</ele>
        <time>2021-08-30T21:58:34.834Z</time>
      </trkpt>
      <trkpt lat="42.8305" lon="2.33769">
        <ele>654.9</ele>
        <time>2021-08-30T21:58:39.223Z</time>
      </trkpt>
      <trkpt lat="42.83062" lon="2.33761">
        <ele>656.7</ele>
        <time>2021-08-30T21:58:47.597Z</time>
      </trkpt>
      <trkpt lat="42.83067" lon="2.33753">
        <ele>656.5</ele>
        <time>2021-08-30T21:58:48.457Z</time>
      </trkpt>
      <trkpt lat="42.83074" lon="2.33737">
        <ele>656.4</ele>
        <time>2021-08-30T21:58:50.374Z</time>
      </trkpt>
      <trkpt lat="42.83092" lon="2.33651">
        <ele>656.5</ele>
        <time>2021-08-30T21:59:01.186Z</time>
      </trkpt>
      <trkpt lat="42.83096" lon="2.33641">
        <ele>657.8</ele>
        <time>2021-08-30T21:59:06.423Z</time>
      </trkpt>
      <trkpt lat="42.83124" lon="2.33599">
        <ele>665</ele>
        <time>2021-08-30T21:59:32.519Z</time>
      </trkpt>
      <trkpt lat="42.8313" lon="2.33582">
        <ele>665.4</ele>
        <time>2021-08-30T21:59:35.578Z</time>
      </trkpt>
      <trkpt lat="42.8314" lon="2.33545">
        <ele>669.6</ele>
        <time>2021-08-30T21:59:53.708Z</time>
      </trkpt>
      <trkpt lat="42.83141" lon="2.3353">
        <ele>670.3</ele>
        <time>2021-08-30T21:59:57.149Z</time>
      </trkpt>
      <trkpt lat="42.83141" lon="2.33517">
        <ele>670.9</ele>
        <time>2021-08-30T22:00:00.109Z</time>
      </trkpt>
      <trkpt lat="42.83138" lon="2.33505">
        <ele>671</ele>
        <time>2021-08-30T22:00:01.786Z</time>
      </trkpt>
      <trkpt lat="42.83127" lon="2.33472">
        <ele>672.6</ele>
        <time>2021-08-30T22:00:09.881Z</time>
      </trkpt>
      <trkpt lat="42.83121" lon="2.3346">
        <ele>672.8</ele>
        <time>2021-08-30T22:00:11.972Z</time>
      </trkpt>
      <trkpt lat="42.83116" lon="2.33453">
        <ele>672.7</ele>
        <time>2021-08-30T22:00:12.893Z</time>
      </trkpt>
      <trkpt lat="42.8311" lon="2.33448">
        <ele>672.3</ele>
        <time>2021-08-30T22:00:13.479Z</time>
      </trkpt>
      <trkpt lat="42.83103" lon="2.33445">
        <ele>671.5</ele>
        <time>2021-08-30T22:00:14.098Z</time>
      </trkpt>
      <trkpt lat="42.83089" lon="2.33444">
        <ele>669.5</ele>
        <time>2021-08-30T22:00:15.279Z</time>
      </trkpt>
      <trkpt lat="42.83083" lon="2.33442">
        <ele>668.9</ele>
        <time>2021-08-30T22:00:15.799Z</time>
      </trkpt>
      <trkpt lat="42.83078" lon="2.33437">
        <ele>670.9</ele>
        <time>2021-08-30T22:00:19.686Z</time>
      </trkpt>
      <trkpt lat="42.83074" lon="2.33431">
        <ele>672.7</ele>
        <time>2021-08-30T22:00:23.414Z</time>
      </trkpt>
      <trkpt lat="42.83071" lon="2.33422">
        <ele>674.5</ele>
        <time>2021-08-30T22:00:27.960Z</time>
      </trkpt>
      <trkpt lat="42.8307" lon="2.33411">
        <ele>675.7</ele>
        <time>2021-08-30T22:00:33.056Z</time>
      </trkpt>
      <trkpt lat="42.83072" lon="2.334">
        <ele>675.8</ele>
        <time>2021-08-30T22:00:34.574Z</time>
      </trkpt>
      <trkpt lat="42.83082" lon="2.33367">
        <ele>674.1</ele>
        <time>2021-08-30T22:00:36.622Z</time>
      </trkpt>
      <trkpt lat="42.83088" lon="2.33353">
        <ele>675</ele>
        <time>2021-08-30T22:00:40.686Z</time>
      </trkpt>
      <trkpt lat="42.83101" lon="2.33331">
        <ele>677.5</ele>
        <time>2021-08-30T22:00:51.651Z</time>
      </trkpt>
      <trkpt lat="42.83118" lon="2.33312">
        <ele>680.6</ele>
        <time>2021-08-30T22:01:05.431Z</time>
      </trkpt>
      <trkpt lat="42.83138" lon="2.33293">
        <ele>681.5</ele>
        <time>2021-08-30T22:01:11.418Z</time>
      </trkpt>
      <trkpt lat="42.83151" lon="2.33283">
        <ele>680.7</ele>
        <time>2021-08-30T22:01:12.697Z</time>
      </trkpt>
      <trkpt lat="42.83165" lon="2.33275">
        <ele>679.1</ele>
        <time>2021-08-30T22:01:13.975Z</time>
      </trkpt>
      <trkpt lat="42.83175" lon="2.33272">
        <ele>678.7</ele>
        <time>2021-08-30T22:01:14.975Z</time>
      </trkpt>
      <trkpt lat="42.83192" lon="2.33271">
        <ele>678.3</ele>
        <time>2021-08-30T22:01:16.926Z</time>
      </trkpt>
      <trkpt lat="42.83303" lon="2.33295">
        <ele>682.6</ele>
        <time>2021-08-30T22:01:45.050Z</time>
      </trkpt>
      <trkpt lat="42.83311" lon="2.33295">
        <ele>683.1</ele>
        <time>2021-08-30T22:01:47.526Z</time>
      </trkpt>
      <trkpt lat="42.83329" lon="2.33289">
        <ele>683.6</ele>
        <time>2021-08-30T22:01:51.527Z</time>
      </trkpt>
      <trkpt lat="42.83336" lon="2.33283">
        <ele>684</ele>
        <time>2021-08-30T22:01:53.852Z</time>
      </trkpt>
      <trkpt lat="42.83347" lon="2.33272">
        <ele>685.5</ele>
        <time>2021-08-30T22:02:00.238Z</time>
      </trkpt>
      <trkpt lat="42.83464" lon="2.33118">
        <ele>695.7</ele>
        <time>2021-08-30T22:02:50.658Z</time>
      </trkpt>
      <trkpt lat="42.83479" lon="2.33092">
        <ele>695.5</ele>
        <time>2021-08-30T22:02:54.018Z</time>
      </trkpt>
      <trkpt lat="42.83487" lon="2.33074">
        <ele>695.6</ele>
        <time>2021-08-30T22:02:56.685Z</time>
      </trkpt>
      <trkpt lat="42.83542" lon="2.32907">
        <ele>705.4</ele>
        <time>2021-08-30T22:03:41.609Z</time>
      </trkpt>
      <trkpt lat="42.8355" lon="2.32891">
        <ele>705.5</ele>
        <time>2021-08-30T22:03:44.076Z</time>
      </trkpt>
    </trkseg>
  </trk>
</gpx>